Marengo, Ohio
Current Conditions -  °F | °C
As of 11:15 AM on Saturday 25 Oct 2014 (Local Time) from K4I3 Reporting Station
Broken Clouds Broken Clouds  
Wind Chill: 59°   Ceiling: 4800
Heat Index: 59°   Visibility: 10mi
Dew Point: 50°   Wind: 13mph
Humidity: 72%   Direction: 220°SW
Pressure: 29.92"   Gusts: 18mph
Location:  40.4°N, 82.81°W
Report Text: K4I3 251515Z AUTO 22011G16KT 10SM BKN048 BKN065 15/10 A2992 RMK AO2
Loading
Personal Weather Stations






























Interactive Weather Map
Tropical Storm Tracking
New forecast layout! Learn more

10-Day Weather Forecast

Advertisements
Track Severe Weather on mobile